This is the latest recevied weather packets stored in our database for station/object IZ2WMD-13. If no packets are shown the sender has not sent any weather packets the latest 10 day(s).
| Time | Temp. | Humidity | Pressure | Rain* | Wind** | Luminosity | Snow |
|---|---|---|---|---|---|---|---|
| 1777471354 | 22.78° C | 48% | 1014.3 hPa | - | - | - | - |
| 1777470150 | 23.33° C | 48% | 1014.4 hPa | - | - | - | - |
| 1777468945 | 24.44° C | 48% | 1014.4 hPa | - | - | - | - |
| 1777467741 | 25.56° C | 46% | 1014.4 hPa | - | - | - | - |
| 1777466536 | 22.78° C | 51% | 1014.8 hPa | - | - | - | - |
| 1777465332 | 26.11° C | 46% | 1014.7 hPa | - | - | - | - |
| 1777464127 | 25° C | 47% | 1014.7 hPa | - | - | - | - |
| 1777462923 | 24.44° C | 48% | 1014.9 hPa | - | - | - | - |
| 1777461719 | 23.89° C | 52% | 1015.1 hPa | - | - | - | - |
| 1777459310 | 24.44° C | 52% | 1015.3 hPa | - | - | - | - |
| 1777458105 | 22.78° C | 57% | 1015.6 hPa | - | - | - | - |
| 1777456901 | 22.78° C | 59% | 1015.6 hPa | - | - | - | - |
| 1777455696 | 21.11° C | 62% | 1015.8 hPa | - | - | - | - |
| 1777454491 | 20° C | 61% | 1016 hPa | - | - | - | - |
| 1777453287 | 19.44° C | 64% | 1015.9 hPa | - | - | - | - |
| 1777452082 | 19.44° C | 67% | 1016 hPa | - | - | - | - |
| 1777450878 | 17.78° C | 77% | 1016.3 hPa | - | - | - | - |
| 1777449673 | 17.22° C | 80% | 1016.4 hPa | - | - | - | - |
| 1777448469 | 17.22° C | 84% | 1016.3 hPa | - | - | - | - |
| 1777447264 | 17.22° C | 82% | 1016.1 hPa | - | - | - | - |
| 1777446060 | 16.67° C | 85% | 1016.1 hPa | - | - | - | - |
| 1777443651 | 15.56° C | 86% | 1016 hPa | - | - | - | - |
| 1777442446 | 15° C | 89% | 1015.9 hPa | - | - | - | - |
| 1777441242 | 15° C | 91% | 1015.9 hPa | - | - | - | - |
| 1777440037 | 15° C | 91% | 1015.8 hPa | - | - | - | - |
* Rain since midnight (hover to see other rain measurements)
** Current wind speed in m/s (hover to see current wind gust speed)